createdAt,value
2023-04-29T00:01:06.634Z,0.66
2023-04-29T00:03:33.778Z,0.58
2023-04-29T00:06:01.685Z,0.55
2023-04-29T00:08:28.605Z,0.66
2023-04-29T00:10:55.580Z,0.37
2023-04-29T00:13:22.491Z,0.64
2023-04-29T00:15:49.359Z,0.45
2023-04-29T00:18:16.111Z,0.61
2023-04-29T00:20:43.532Z,0.46
2023-04-29T00:23:11.254Z,0.52
2023-04-29T00:25:38.960Z,0.34
2023-04-29T00:28:06.296Z,0.65
2023-04-29T00:30:34.626Z,0.70
2023-04-29T00:33:02.009Z,0.36
2023-04-29T00:35:28.702Z,0.33
2023-04-29T00:37:55.413Z,0.22
2023-04-29T00:40:22.251Z,0.16
2023-04-29T00:42:48.968Z,0.41
2023-04-29T00:45:15.690Z,0.43
2023-04-29T00:47:42.619Z,0.33
2023-04-29T00:50:09.863Z,0.54
2023-04-29T00:52:38.876Z,0.43
2023-04-29T00:55:07.424Z,0.47
2023-04-29T00:57:35.010Z,0.35
2023-04-29T01:00:02.137Z,0.31
2023-04-29T01:02:29.678Z,0.20
2023-04-29T01:04:56.751Z,0.34
2023-04-29T01:07:52.735Z,0.15
2023-04-29T01:10:38.038Z,-0.06
2023-04-29T01:13:10.126Z,0.27
2023-04-29T01:16:04.319Z,0.17
2023-04-29T01:18:39.475Z,-0.01
2023-04-29T01:21:06.266Z,0.10
2023-04-29T01:23:33.050Z,-0.01
2023-04-29T01:25:59.924Z,-0.37
2023-04-29T01:28:33.458Z,-0.29
2023-04-29T01:31:09.587Z,-0.08
2023-04-29T01:33:39.380Z,-0.19
2023-04-29T01:36:30.096Z,0.01
2023-04-29T01:39:14.665Z,-0.13
2023-04-29T01:41:42.076Z,0.08
2023-04-29T01:44:15.435Z,-0.11
2023-04-29T01:46:54.457Z,-0.13
2023-04-29T01:49:24.428Z,-0.12
2023-04-29T01:51:51.236Z,-0.33
2023-04-29T01:54:17.962Z,-0.29
2023-04-29T01:56:45.145Z,-0.23
2023-04-29T01:59:12.293Z,-0.05
2023-04-29T02:01:39.108Z,-0.22
2023-04-29T02:04:06.061Z,-0.17
2023-04-29T02:06:33.702Z,-0.10
2023-04-29T02:09:00.501Z,-0.15
2023-04-29T02:11:27.180Z,-0.15
2023-04-29T02:13:54.841Z,-0.08
2023-04-29T02:16:21.709Z,-0.12
2023-04-29T02:18:48.518Z,-0.13
2023-04-29T02:21:15.908Z,-0.34
2023-04-29T02:23:42.672Z,-0.16
2023-04-29T02:26:10.704Z,-0.23
2023-04-29T02:28:37.747Z,-0.52
2023-04-29T02:31:04.589Z,-0.32
2023-04-29T02:33:32.162Z,-0.18
2023-04-29T02:35:59.809Z,-0.16
2023-04-29T02:38:26.641Z,-0.10
2023-04-29T02:40:53.400Z,-0.27
2023-04-29T02:43:20.173Z,-0.33
2023-04-29T02:45:46.898Z,-0.18
2023-04-29T02:48:13.606Z,-0.17
2023-04-29T02:50:40.384Z,-0.42
2023-04-29T02:53:07.214Z,-0.42
2023-04-29T02:55:34.249Z,-0.52
2023-04-29T02:58:00.978Z,-0.57
2023-04-29T03:00:28.039Z,-0.79
2023-04-29T03:02:54.763Z,-0.66
2023-04-29T03:05:21.573Z,-0.58
2023-04-29T03:07:48.571Z,-0.45
2023-04-29T03:10:15.203Z,-0.54
2023-04-29T03:12:41.941Z,-0.56
2023-04-29T03:15:10.742Z,-0.45
2023-04-29T03:17:37.644Z,-0.40
2023-04-29T03:20:05.393Z,-0.50
2023-04-29T03:22:32.198Z,-0.43
2023-04-29T03:24:59.069Z,-0.68
2023-04-29T03:27:25.719Z,-0.50
2023-04-29T03:29:53.290Z,-0.39
2023-04-29T03:32:20.232Z,-0.24
2023-04-29T03:34:46.926Z,-0.30
2023-04-29T03:37:13.844Z,-0.25
2023-04-29T03:39:40.646Z,-0.31
2023-04-29T03:42:07.399Z,-0.18
2023-04-29T03:44:34.865Z,-0.28
2023-04-29T03:47:01.534Z,-0.39
2023-04-29T03:49:28.310Z,-0.31
2023-04-29T03:51:55.139Z,-0.15
2023-04-29T03:54:22.123Z,-0.37
2023-04-29T03:56:49.192Z,-0.35
2023-04-29T03:59:16.026Z,-0.36
2023-04-29T04:01:42.754Z,-0.22
2023-04-29T04:04:09.899Z,-0.02
2023-04-29T04:06:36.940Z,0.13
2023-04-29T04:09:03.761Z,0.09
2023-04-29T04:11:30.549Z,0.20
2023-04-29T04:13:57.425Z,0.26
2023-04-29T04:16:24.232Z,0.10
2023-04-29T04:18:51.010Z,0.03
2023-04-29T04:21:17.841Z,-0.05
2023-04-29T04:23:44.975Z,-0.01
2023-04-29T04:26:11.755Z,-0.10
2023-04-29T04:28:38.606Z,-0.03
2023-04-29T04:31:05.965Z,-0.06
2023-04-29T04:33:33.428Z,0.02
2023-04-29T04:36:00.280Z,0.27
2023-04-29T04:38:27.898Z,0.49
2023-04-29T04:40:56.665Z,0.65
2023-04-29T04:43:23.749Z,0.78
2023-04-29T04:45:50.577Z,0.67
2023-04-29T04:48:17.397Z,0.94
2023-04-29T04:50:44.197Z,1.10
2023-04-29T04:53:11.016Z,1.08
2023-04-29T04:55:38.163Z,1.19
2023-04-29T04:58:04.843Z,1.45
2023-04-29T05:00:31.607Z,2.38
2023-04-29T05:02:58.568Z,2.94
2023-04-29T05:05:25.707Z,2.66
2023-04-29T05:07:52.449Z,2.23
2023-04-29T05:10:19.187Z,2.00
2023-04-29T05:12:46.005Z,1.84
2023-04-29T05:15:15.027Z,2.49
2023-04-29T05:17:42.038Z,2.73
2023-04-29T05:20:09.432Z,3.07
2023-04-29T05:22:36.483Z,3.99
2023-04-29T05:25:03.863Z,5.29
2023-04-29T05:27:30.741Z,6.54
2023-04-29T05:29:57.508Z,7.35
2023-04-29T05:32:24.200Z,8.16
2023-04-29T05:34:51.369Z,9.38
2023-04-29T05:37:18.035Z,10.40
2023-04-29T05:39:44.805Z,10.71
2023-04-29T05:42:11.726Z,11.80
2023-04-29T05:44:39.713Z,12.08
2023-04-29T05:47:06.450Z,13.82
2023-04-29T05:49:33.579Z,13.46
2023-04-29T05:52:04.283Z,14.61
2023-04-29T05:54:31.367Z,16.15
2023-04-29T05:56:58.237Z,16.52
2023-04-29T05:59:25.039Z,14.84
2023-04-29T06:01:51.781Z,14.44
2023-04-29T06:04:18.990Z,13.57
2023-04-29T06:06:45.876Z,11.99
2023-04-29T06:09:26.511Z,13.21
2023-04-29T06:11:54.792Z,14.75
2023-04-29T06:14:22.107Z,15.13
2023-04-29T06:16:49.709Z,16.26
2023-04-29T06:19:16.830Z,16.55
2023-04-29T06:21:43.604Z,15.85
2023-04-29T06:24:10.616Z,14.87
2023-04-29T06:26:37.680Z,14.20
2023-04-29T06:29:04.735Z,15.63
2023-04-29T06:31:31.875Z,16.25
2023-04-29T06:33:58.629Z,13.80
2023-04-29T06:36:25.560Z,13.82
2023-04-29T06:38:52.338Z,12.64
2023-04-29T06:41:19.363Z,11.69
2023-04-29T06:43:48.491Z,11.21
2023-04-29T06:46:15.947Z,10.17
2023-04-29T06:48:43.051Z,9.67
2023-04-29T06:51:09.969Z,10.50
2023-04-29T06:53:36.777Z,12.33
2023-04-29T06:56:03.625Z,12.41
2023-04-29T06:58:30.838Z,13.01
2023-04-29T07:00:57.662Z,14.20
2023-04-29T07:03:24.432Z,14.69
2023-04-29T07:05:51.166Z,15.25
2023-04-29T07:08:18.448Z,13.61
2023-04-29T07:10:45.326Z,14.17
2023-04-29T07:13:12.495Z,13.98
2023-04-29T07:15:39.340Z,14.42
2023-04-29T07:18:07.104Z,14.90
2023-04-29T07:20:36.988Z,14.59
2023-04-29T07:23:03.880Z,14.47
2023-04-29T07:25:31.453Z,15.07
2023-04-29T07:27:58.125Z,15.39
2023-04-29T07:30:25.250Z,16.64
2023-04-29T07:32:52.035Z,16.82
2023-04-29T07:35:18.999Z,16.39
2023-04-29T07:37:46.149Z,15.87
2023-04-29T07:40:13.462Z,17.12
2023-04-29T07:42:40.129Z,17.88
2023-04-29T07:45:07.521Z,16.79
2023-04-29T07:47:34.355Z,18.34
2023-04-29T07:50:01.480Z,18.03
2023-04-29T07:52:28.392Z,18.22
2023-04-29T07:54:57.822Z,19.19
2023-04-29T07:57:24.533Z,21.08
2023-04-29T07:59:53.077Z,18.94
2023-04-29T08:02:20.079Z,19.50
2023-04-29T08:04:47.561Z,18.92
2023-04-29T08:07:14.605Z,18.97
2023-04-29T08:09:41.609Z,20.40
2023-04-29T08:12:08.546Z,18.67
2023-04-29T08:14:35.187Z,19.44
2023-04-29T08:17:01.980Z,18.89
2023-04-29T08:19:28.772Z,20.19
2023-04-29T08:21:55.632Z,19.56
2023-04-29T08:24:22.826Z,19.10
2023-04-29T08:26:49.514Z,19.29
2023-04-29T08:29:16.446Z,18.42
2023-04-29T08:31:43.234Z,16.93
2023-04-29T08:34:09.951Z,18.08
2023-04-29T08:36:38.714Z,17.57
2023-04-29T08:39:05.481Z,16.80
2023-04-29T08:41:33.677Z,16.27
2023-04-29T08:44:01.179Z,16.12
2023-04-29T08:46:28.611Z,15.49
2023-04-29T08:48:58.073Z,15.09
2023-04-29T08:51:24.943Z,14.99
2023-04-29T08:53:51.725Z,14.87
2023-04-29T08:56:22.151Z,14.96
2023-04-29T08:58:54.761Z,14.67
2023-04-29T09:01:23.331Z,15.45
2023-04-29T09:04:11.832Z,15.46
2023-04-29T09:06:38.570Z,15.64
2023-04-29T09:09:06.705Z,15.85
2023-04-29T09:11:34.799Z,15.14
2023-04-29T09:14:02.452Z,14.48
2023-04-29T09:16:29.907Z,14.78
2023-04-29T09:18:57.091Z,15.20
2023-04-29T09:21:29.237Z,15.81
2023-04-29T09:23:58.637Z,15.60
2023-04-29T09:26:26.937Z,16.13
2023-04-29T09:29:18.520Z,16.02
2023-04-29T09:31:46.462Z,16.26
2023-04-29T09:34:14.365Z,15.69
2023-04-29T09:36:51.134Z,16.19
2023-04-29T09:39:22.577Z,16.27
2023-04-29T09:41:52.487Z,16.30
2023-04-29T09:44:24.539Z,15.32
2023-04-29T09:47:10.778Z,15.10
2023-04-29T09:49:43.154Z,15.54
2023-04-29T09:52:11.118Z,16.22
2023-04-29T09:54:39.776Z,16.25
2023-04-29T09:57:08.622Z,16.80
2023-04-29T09:59:37.715Z,17.10
2023-04-29T10:02:15.846Z,17.21
2023-04-29T10:04:45.997Z,17.33
2023-04-29T10:07:17.568Z,17.12
2023-04-29T10:09:47.130Z,17.35
2023-04-29T10:12:19.023Z,16.94
2023-04-29T10:14:55.332Z,17.40
2023-04-29T10:17:41.784Z,16.90
2023-04-29T10:20:09.748Z,17.39
2023-04-29T10:22:45.499Z,17.28
2023-04-29T10:25:14.585Z,17.43
2023-04-29T10:27:45.885Z,17.35
2023-04-29T10:30:17.835Z,17.64
2023-04-29T10:32:51.078Z,17.88
2023-04-29T10:35:20.550Z,17.82
2023-04-29T10:37:48.922Z,18.27
2023-04-29T10:40:36.970Z,17.54
2023-04-29T10:43:04.729Z,17.69
2023-04-29T10:45:35.404Z,17.73
2023-04-29T10:48:02.602Z,17.94
2023-04-29T10:50:30.538Z,18.19
2023-04-29T10:52:58.011Z,18.30
2023-04-29T10:55:25.809Z,18.67
2023-04-29T10:57:59.703Z,18.69
2023-04-29T11:00:30.581Z,18.55
2023-04-29T11:02:59.454Z,18.61
2023-04-29T11:05:37.519Z,18.28
2023-04-29T11:08:24.315Z,17.96
2023-04-29T11:10:54.793Z,18.06
2023-04-29T11:13:31.810Z,17.51
2023-04-29T11:16:10.327Z,17.62
2023-04-29T11:18:57.873Z,17.45
2023-04-29T11:21:24.708Z,17.11
2023-04-29T11:23:52.256Z,17.34
2023-04-29T11:26:20.511Z,17.38
2023-04-29T11:28:48.410Z,17.57
2023-04-29T11:31:15.135Z,17.74
2023-04-29T11:33:41.878Z,18.36
2023-04-29T11:36:11.172Z,18.11
2023-04-29T11:38:43.867Z,17.58
2023-04-29T11:41:12.018Z,17.97
2023-04-29T11:43:41.645Z,17.57
2023-04-29T11:46:16.060Z,17.51
2023-04-29T11:48:48.103Z,17.60
2023-04-29T11:51:17.539Z,17.83
2023-04-29T11:53:44.360Z,18.01
2023-04-29T11:56:11.541Z,18.20
2023-04-29T11:58:39.284Z,18.30
2023-04-29T12:01:06.562Z,17.99
2023-04-29T12:03:34.153Z,17.95
2023-04-29T12:06:03.230Z,18.08
2023-04-29T12:08:30.844Z,18.30
2023-04-29T12:10:59.207Z,18.71
2023-04-29T12:13:30.935Z,18.70
2023-04-29T12:15:59.146Z,18.32
2023-04-29T12:18:27.738Z,18.09
2023-04-29T12:20:58.570Z,17.97
2023-04-29T12:23:28.564Z,17.97
2023-04-29T12:26:00.240Z,18.12
2023-04-29T12:28:28.497Z,18.18
2023-04-29T12:30:55.562Z,18.37
2023-04-29T12:33:29.314Z,18.50
2023-04-29T12:35:58.279Z,18.11
2023-04-29T12:38:30.003Z,17.78
2023-04-29T12:40:59.482Z,17.10
2023-04-29T12:43:27.983Z,16.95
2023-04-29T12:46:05.543Z,16.85
2023-04-29T12:48:34.023Z,16.54
2023-04-29T12:51:02.025Z,16.55
2023-04-29T12:53:32.834Z,16.30
2023-04-29T12:55:59.842Z,16.84
2023-04-29T12:58:30.767Z,17.50
2023-04-29T13:00:58.949Z,17.46
2023-04-29T13:03:26.792Z,17.82
2023-04-29T13:05:55.035Z,17.81
2023-04-29T13:08:22.110Z,17.40
2023-04-29T13:10:49.663Z,17.04
2023-04-29T13:13:16.772Z,16.71
2023-04-29T13:15:43.481Z,16.24
2023-04-29T13:18:10.424Z,16.37
2023-04-29T13:20:41.461Z,16.38
2023-04-29T13:23:09.363Z,16.11
2023-04-29T13:25:36.219Z,16.81
2023-04-29T13:28:03.267Z,16.82
2023-04-29T13:30:30.080Z,17.10
2023-04-29T13:33:03.378Z,16.87
2023-04-29T13:35:36.170Z,16.66
2023-04-29T13:38:03.193Z,16.64
2023-04-29T13:40:31.095Z,16.56
2023-04-29T13:43:05.831Z,16.59
2023-04-29T13:45:39.976Z,16.13
2023-04-29T13:48:45.291Z,16.48
2023-04-29T13:54:10.583Z,16.32
2023-04-29T14:02:08.064Z,15.89
2023-04-29T14:04:06.985Z,16.20
2023-04-29T14:06:34.372Z,16.34
2023-04-29T14:09:03.555Z,16.44
2023-04-29T14:11:30.999Z,16.25
2023-04-29T14:13:57.784Z,16.50
2023-04-29T14:16:24.713Z,16.20
2023-04-29T14:18:51.732Z,15.92
2023-04-29T14:21:18.417Z,15.42
2023-04-29T14:23:45.271Z,15.21
2023-04-29T14:26:27.011Z,14.94
2023-04-29T14:29:00.437Z,14.77
2023-04-29T14:31:28.924Z,14.76
2023-04-29T14:33:57.297Z,14.67
2023-04-29T14:36:24.440Z,14.46
2023-04-29T14:38:51.489Z,14.28
2023-04-29T14:41:18.531Z,14.32
2023-04-29T14:43:45.148Z,14.07
2023-04-29T14:46:11.916Z,13.97
2023-04-29T14:48:38.845Z,13.98
2023-04-29T14:51:06.533Z,13.66
2023-04-29T14:53:34.136Z,13.56
2023-04-29T14:56:01.500Z,13.55
2023-04-29T14:58:28.412Z,13.40
2023-04-29T15:00:55.377Z,13.37
2023-04-29T15:03:23.244Z,13.25
2023-04-29T15:05:51.499Z,13.37
2023-04-29T15:08:19.267Z,13.39
2023-04-29T15:10:47.637Z,13.45
2023-04-29T15:13:14.795Z,13.57
2023-04-29T15:15:43.102Z,13.66
2023-04-29T15:18:10.032Z,13.79
2023-04-29T15:20:37.596Z,13.68
2023-04-29T15:23:05.639Z,13.57
2023-04-29T15:25:34.684Z,13.94
2023-04-29T15:28:04.732Z,13.74
2023-04-29T15:30:32.207Z,13.62
2023-04-29T15:32:59.376Z,13.58
2023-04-29T15:35:26.230Z,13.38
2023-04-29T15:37:53.164Z,13.32
2023-04-29T15:40:20.310Z,13.23
2023-04-29T15:42:47.245Z,13.25
2023-04-29T15:45:14.144Z,13.18
2023-04-29T15:47:40.881Z,13.06
2023-04-29T15:50:09.628Z,13.20
2023-04-29T15:52:37.007Z,13.41
2023-04-29T15:55:05.194Z,13.37
2023-04-29T15:57:32.073Z,13.50
2023-04-29T15:59:58.952Z,13.39
2023-04-29T16:02:25.876Z,13.28
2023-04-29T16:04:52.739Z,13.05
2023-04-29T16:07:19.676Z,13.12
2023-04-29T16:09:46.677Z,13.07
2023-04-29T16:12:14.012Z,13.03
2023-04-29T16:14:40.968Z,12.94
2023-04-29T16:17:08.206Z,12.94
2023-04-29T16:19:51.177Z,12.71
2023-04-29T16:22:18.105Z,13.05
2023-04-29T16:24:46.412Z,12.88
2023-04-29T16:27:14.412Z,13.05
2023-04-29T16:29:41.836Z,12.76
2023-04-29T16:32:08.512Z,12.62
2023-04-29T16:34:35.814Z,12.63
2023-04-29T16:37:02.766Z,12.56
2023-04-29T16:39:29.808Z,12.54
2023-04-29T16:41:56.673Z,12.46
2023-04-29T16:44:23.555Z,12.20
2023-04-29T16:46:51.601Z,12.21
2023-04-29T16:49:25.626Z,12.23
2023-04-29T16:51:55.480Z,12.14
2023-04-29T16:54:23.803Z,12.08
2023-04-29T16:56:51.338Z,11.73
2023-04-29T16:59:18.393Z,11.88
2023-04-29T17:01:45.579Z,12.10
2023-04-29T17:04:12.451Z,11.95
2023-04-29T17:06:40.715Z,11.88
2023-04-29T17:09:07.946Z,11.90
2023-04-29T17:11:34.761Z,11.86
2023-04-29T17:14:01.473Z,11.97
2023-04-29T17:16:28.996Z,11.86
2023-04-29T17:18:56.469Z,11.84
2023-04-29T17:21:24.907Z,11.82
2023-04-29T17:23:53.608Z,11.90
2023-04-29T17:26:21.852Z,11.81
2023-04-29T17:28:48.753Z,11.73
2023-04-29T17:31:15.960Z,11.71
2023-04-29T17:33:54.949Z,11.66
2023-04-29T17:36:22.723Z,11.64
2023-04-29T17:38:49.558Z,11.66
2023-04-29T17:41:16.421Z,11.50
2023-04-29T17:43:43.257Z,11.58
2023-04-29T17:46:10.085Z,11.37
2023-04-29T17:48:36.894Z,11.33
2023-04-29T17:51:04.097Z,11.33
2023-04-29T17:53:33.241Z,11.36
2023-04-29T17:56:00.081Z,11.46
2023-04-29T17:58:29.238Z,11.52
2023-04-29T18:00:57.016Z,11.44
2023-04-29T18:03:24.173Z,11.33
2023-04-29T18:05:51.632Z,11.23
2023-04-29T18:08:18.349Z,11.21
2023-04-29T18:10:45.689Z,11.23
2023-04-29T18:13:12.626Z,11.10
2023-04-29T18:15:39.592Z,11.12
2023-04-29T18:18:06.500Z,11.04
2023-04-29T18:20:33.324Z,10.95
2023-04-29T18:23:00.519Z,10.82
2023-04-29T18:25:27.566Z,10.69
2023-04-29T18:28:07.747Z,10.59
2023-04-29T18:30:40.378Z,10.55
2023-04-29T18:33:07.848Z,10.49
2023-04-29T18:35:34.982Z,10.29
2023-04-29T18:38:02.037Z,10.53
2023-04-29T18:40:29.118Z,10.39
2023-04-29T18:42:55.843Z,10.19
2023-04-29T18:45:23.166Z,10.22
2023-04-29T18:47:50.063Z,10.11
2023-04-29T18:50:17.052Z,10.14
2023-04-29T18:52:44.245Z,10.11
2023-04-29T18:55:11.184Z,10.04
2023-04-29T18:57:38.399Z,10.02
2023-04-29T19:00:06.498Z,9.99
2023-04-29T19:02:33.263Z,9.97
2023-04-29T19:05:02.986Z,9.80
2023-04-29T19:07:29.800Z,9.80
2023-04-29T19:09:57.241Z,9.92
2023-04-29T19:12:26.145Z,9.81
2023-04-29T19:14:53.093Z,9.75
2023-04-29T19:17:20.093Z,9.70
2023-04-29T19:19:47.964Z,9.67
2023-04-29T19:22:15.074Z,9.62
2023-04-29T19:24:43.233Z,9.53
2023-04-29T19:27:10.680Z,9.77
2023-04-29T19:29:38.352Z,10.03
2023-04-29T19:32:05.262Z,10.03
2023-04-29T19:34:32.488Z,9.79
2023-04-29T19:36:59.198Z,9.74
2023-04-29T19:39:27.289Z,9.46
2023-04-29T19:41:54.094Z,9.42
2023-04-29T19:44:21.197Z,9.65
2023-04-29T19:46:52.753Z,9.86
2023-04-29T19:49:20.472Z,9.86
2023-04-29T19:51:47.458Z,9.55
2023-04-29T19:54:14.317Z,9.46
2023-04-29T19:56:41.211Z,9.18
2023-04-29T19:59:13.743Z,9.30
2023-04-29T20:01:41.148Z,9.44
2023-04-29T20:04:08.917Z,9.54
2023-04-29T20:06:37.887Z,9.56
2023-04-29T20:09:04.842Z,9.31
2023-04-29T20:11:31.729Z,9.57
2023-04-29T20:13:58.932Z,9.64
2023-04-29T20:16:27.973Z,9.61
2023-04-29T20:18:55.016Z,9.69
2023-04-29T20:21:22.038Z,9.64
2023-04-29T20:23:49.169Z,9.57
2023-04-29T20:26:17.916Z,9.60
2023-04-29T20:28:46.445Z,9.25
2023-04-29T20:31:13.173Z,8.91
2023-04-29T20:33:40.068Z,9.21
2023-04-29T20:36:07.559Z,9.37
2023-04-29T20:38:37.607Z,9.66
2023-04-29T20:41:08.280Z,9.48
2023-04-29T20:43:35.170Z,9.22
2023-04-29T20:46:03.088Z,9.23
2023-04-29T20:48:30.009Z,8.80
2023-04-29T20:50:56.724Z,9.04
2023-04-29T20:53:23.457Z,8.69
2023-04-29T20:55:50.282Z,8.83
2023-04-29T20:58:17.554Z,8.79
2023-04-29T21:00:45.606Z,8.88
2023-04-29T21:03:13.196Z,8.85
2023-04-29T21:05:40.044Z,9.08
2023-04-29T21:08:06.790Z,8.81
2023-04-29T21:10:33.615Z,9.18
2023-04-29T21:13:00.490Z,9.25
2023-04-29T21:15:29.340Z,9.09
2023-04-29T21:17:56.952Z,9.02
2023-04-29T21:20:23.798Z,9.15
2023-04-29T21:22:57.396Z,9.25
2023-04-29T21:25:24.709Z,9.17
2023-04-29T21:27:51.543Z,9.01
2023-04-29T21:30:18.289Z,9.00
2023-04-29T21:32:44.999Z,9.13
2023-04-29T21:35:11.803Z,9.35
2023-04-29T21:37:38.808Z,9.28
2023-04-29T21:40:06.653Z,9.21
2023-04-29T21:42:34.800Z,9.41
2023-04-29T21:45:02.211Z,9.50
2023-04-29T21:47:30.069Z,9.61
2023-04-29T21:49:57.558Z,9.61
2023-04-29T21:52:24.648Z,9.67
2023-04-29T21:54:51.601Z,9.72
2023-04-29T21:57:21.985Z,9.69
2023-04-29T21:59:53.464Z,9.68
2023-04-29T22:02:25.241Z,9.71
2023-04-29T22:04:52.718Z,9.49
2023-04-29T22:07:20.973Z,9.48
2023-04-29T22:09:49.847Z,9.35
2023-04-29T22:12:18.393Z,9.40
2023-04-29T22:14:45.965Z,9.32
2023-04-29T22:17:13.660Z,9.26
2023-04-29T22:19:41.163Z,9.26
2023-04-29T22:22:07.933Z,9.20
2023-04-29T22:24:34.650Z,9.23
2023-04-29T22:27:01.780Z,9.31
2023-04-29T22:29:28.649Z,9.30
2023-04-29T22:31:56.526Z,9.33
2023-04-29T22:34:23.399Z,9.25
2023-04-29T22:36:50.077Z,9.22
2023-04-29T22:39:16.908Z,9.29
2023-04-29T22:41:43.722Z,9.15
2023-04-29T22:44:10.554Z,9.04
2023-04-29T22:46:37.242Z,9.07
2023-04-29T22:49:04.343Z,8.87
2023-04-29T22:51:32.159Z,8.94
2023-04-29T22:53:58.898Z,8.81
2023-04-29T22:56:25.867Z,8.91
2023-04-29T22:58:52.548Z,8.92
2023-04-29T23:01:19.288Z,8.87
2023-04-29T23:03:46.546Z,8.87
2023-04-29T23:06:13.351Z,8.36
2023-04-29T23:08:40.295Z,8.04
2023-04-29T23:11:07.321Z,8.34
2023-04-29T23:13:34.183Z,8.20
2023-04-29T23:16:01.614Z,8.09
2023-04-29T23:18:28.495Z,7.70
2023-04-29T23:20:56.534Z,7.86
2023-04-29T23:23:23.565Z,7.91
2023-04-29T23:25:50.701Z,7.86
2023-04-29T23:28:17.508Z,7.89
2023-04-29T23:30:46.817Z,8.05
2023-04-29T23:33:14.072Z,8.14
2023-04-29T23:35:41.065Z,8.14
2023-04-29T23:38:07.956Z,8.19
2023-04-29T23:40:34.694Z,8.30
2023-04-29T23:43:01.462Z,8.19
2023-04-29T23:45:28.292Z,8.13
2023-04-29T23:47:55.023Z,7.90
2023-04-29T23:50:21.868Z,8.05
2023-04-29T23:52:48.674Z,7.96
2023-04-29T23:55:15.484Z,8.02
2023-04-29T23:57:42.356Z,7.92
